Time;durP1;ratioP1;P1;durP2;ratioP2;P2;SDS_P1;SDS_P2;PMS_P1;PMS_P2;Temp;Humidity;BMP_temperature;BMP_pressure;BME280_temperature;BME280_humidity;BME280_pressure;Samples;Min_cycle;Max_cycle;Signal;HPM_P1;HPM_P2
2023/10/15 00:01:55;;;;;;;9.77;0.68;;;6.00;99.90;;;;;;4994474;28;20489;-84
2023/10/15 00:04:22;;;;;;;10.70;0.75;;;9.20;99.90;;;;;;5002887;28;20049;-90
2023/10/15 00:06:52;;;;;;;5.40;0.40;;;5.20;99.90;;;;;;5002843;28;20057;-89
2023/10/15 00:09:17;;;;;;;8.23;1.52;;;6.50;99.90;;;;;;4999614;28;20493;-87
2023/10/15 00:11:43;;;;;;;11.45;0.43;;;6.30;99.90;;;;;;4997102;28;20123;-88
2023/10/15 00:14:09;;;;;;;10.60;0.60;;;5.50;99.90;;;;;;5005692;28;20486;-86
2023/10/15 00:16:35;;;;;;;14.95;1.67;;;5.80;99.90;;;;;;4989266;28;20053;-86
2023/10/15 00:19:09;;;;;;;8.65;0.50;;;8.40;99.90;;;;;;4994591;28;20132;-83
2023/10/15 00:21:36;;;;;;;8.38;0.50;;;9.20;99.90;;;;;;4994460;28;20081;-85
2023/10/15 00:24:05;;;;;;;6.07;0.40;;;6.30;99.90;;;;;;4997647;28;20455;-84
2023/10/15 00:26:31;;;;;;;11.45;1.38;;;5.90;99.90;;;;;;5000590;28;20045;-85
2023/10/15 00:28:57;;;;;;;7.63;0.68;;;6.00;99.90;;;;;;4988877;28;20493;-84
2023/10/15 00:31:24;;;;;;;10.27;0.70;;;6.20;99.90;;;;;;4994519;28;20065;-84
2023/10/15 00:33:50;;;;;;;7.55;0.73;;;9.10;99.90;;;;;;4982811;28;20414;-86
2023/10/15 00:36:16;;;;;;;4.35;0.30;;;9.10;99.90;;;;;;4993663;28;20111;-86
2023/10/15 00:38:45;;;;;;;6.78;0.32;;;7.50;99.90;;;;;;4995608;28;20054;-87
2023/10/15 00:41:14;;;;;;;4.65;1.08;;;8.10;99.90;;;;;;5000965;28;20088;-83
2023/10/15 00:43:55;;;;;;;4.65;0.55;;;8.90;99.90;;;;;;5001583;28;20049;-84
2023/10/15 00:46:27;;;;;;;5.38;0.30;;;9.60;99.90;;;;;;5001877;28;20448;-84
2023/10/15 00:48:56;;;;;;;8.10;0.45;;;9.00;99.90;;;;;;4995492;28;20066;-84
2023/10/15 00:51:23;;;;;;;10.07;0.70;;;3.70;99.90;;;;;;4989924;28;20057;-86
2023/10/15 00:53:58;;;;;;;8.55;0.40;;;8.30;99.90;;;;;;4989827;28;20053;-84
2023/10/15 00:56:38;;;;;;;9.25;0.57;;;5.80;99.90;;;;;;4989067;28;20077;-86
2023/10/15 00:59:08;;;;;;;3.58;0.65;;;7.30;99.90;;;;;;4989918;28;20159;-86
2023/10/15 01:01:37;;;;;;;8.77;0.60;;;7.20;99.90;;;;;;4991375;28;20089;-87
2023/10/15 01:04:07;;;;;;;3.55;0.52;;;7.50;99.90;;;;;;4995630;28;20052;-87
2023/10/15 01:09:09;;;;;;;9.68;0.60;;;6.70;99.90;;;;;;5005650;28;20156;-87
2023/10/15 01:11:44;;;;;;;6.32;0.52;;;5.60;99.90;;;;;;4991112;28;20151;-88
2023/10/15 01:14:16;;;;;;;10.00;0.50;;;5.70;99.90;;;;;;4996301;28;20254;-90
2023/10/15 01:16:42;;;;;;;8.45;0.50;;;7.60;99.90;;;;;;4994064;28;20064;-84
2023/10/15 01:21:58;;;;;;;7.47;0.70;;;5.60;99.90;;;;;;5013656;28;20115;-83
2023/10/15 01:24:25;;;;;;;2.78;0.45;;;5.70;99.90;;;;;;4991847;28;20076;-87
2023/10/15 01:29:34;;;;;;;12.10;1.25;;;6.00;99.90;;;;;;4998685;28;20076;-89
2023/10/15 01:32:10;;;;;;;6.30;0.50;;;5.90;99.90;;;;;;4992587;28;20111;-83
2023/10/15 01:34:41;;;;;;;6.43;0.60;;;5.80;99.90;;;;;;4999472;28;20152;-85
2023/10/15 01:39:49;;;;;;;7.95;1.02;;;8.60;99.90;;;;;;4999547;28;20083;-85
2023/10/15 01:44:55;;;;;;;8.13;1.15;;;5.60;99.90;;;;;;5005088;28;20046;-83
2023/10/15 01:47:28;;;;;;;10.45;1.55;;;6.30;99.90;;;;;;5004467;28;20053;-87
2023/10/15 01:49:56;;;;;;;12.75;0.35;;;5.50;99.90;;;;;;5003679;28;20061;-86
2023/10/15 01:52:39;;;;;;;7.35;0.40;;;8.30;99.90;;;;;;5015683;28;20058;-87
2023/10/15 01:55:06;;;;;;;5.47;1.05;;;5.40;99.90;;;;;;4998050;28;20065;-90
2023/10/15 01:57:32;;;;;;;5.75;0.52;;;5.30;99.90;;;;;;4994615;28;20053;-84
2023/10/15 02:02:48;;;;;;;5.70;0.20;;;7.60;99.90;;;;;;4998437;28;20054;-84
2023/10/15 02:05:29;;;;;;;10.20;0.40;;;6.50;99.90;;;;;;5002413;28;20556;-85
2023/10/15 02:07:58;;;;;;;6.28;0.80;;;5.20;99.90;;;;;;5005454;28;20139;-90
2023/10/15 02:10:28;;;;;;;9.27;0.65;;;5.50;99.90;;;;;;4998260;28;20041;-84
2023/10/15 02:13:00;;;;;;;6.25;0.47;;;7.50;99.90;;;;;;5005281;28;20045;-82
2023/10/15 02:15:32;;;;;;;9.75;1.25;;;5.40;99.90;;;;;;5002372;28;20054;-89
2023/10/15 02:17:59;;;;;;;8.20;0.60;;;5.50;99.90;;;;;;4997535;28;20485;-87
2023/10/15 02:20:42;;;;;;;9.07;0.63;;;5.80;99.90;;;;;;4968350;28;20068;-81
2023/10/15 02:23:11;;;;;;;11.38;0.60;;;7.40;99.90;;;;;;5008000;28;20041;-86
2023/10/15 02:25:44;;;;;;;8.73;0.55;;;5.80;99.90;;;;;;4997780;28;20539;-85
2023/10/15 02:28:11;;;;;;;5.47;0.50;;;7.20;99.90;;;;;;5002429;28;20053;-88
2023/10/15 02:30:40;;;;;;;6.72;0.45;;;6.60;99.90;;;;;;5001518;28;20397;-83
2023/10/15 02:33:06;;;;;;;10.85;0.90;;;7.90;99.90;;;;;;5006093;28;20048;-83
2023/10/15 02:35:42;;;;;;;6.07;1.20;;;5.60;99.90;;;;;;5003115;28;20057;-87
2023/10/15 02:38:10;;;;;;;5.30;0.50;;;8.20;99.90;;;;;;5000887;28;20323;-89
2023/10/15 02:40:57;;;;;;;7.13;0.50;;;5.50;99.90;;;;;;4991578;28;20553;-87
2023/10/15 02:43:26;;;;;;;7.43;0.50;;;5.40;99.90;;;;;;4997981;28;20057;-86
2023/10/15 02:45:52;;;;;;;12.88;1.08;;;5.10;99.90;;;;;;5021576;28;20244;-86
2023/10/15 02:48:22;;;;;;;6.13;1.40;;;6.60;99.90;;;;;;4990945;28;20132;-87
2023/10/15 02:51:01;;;;;;;5.38;0.40;;;5.90;99.90;;;;;;4996398;28;20058;-89
2023/10/15 02:53:39;;;;;;;4.72;0.50;;;6.40;99.90;;;;;;4990733;28;20411;-86
2023/10/15 02:56:11;;;;;;;6.20;0.30;;;4.90;99.90;;;;;;4985912;28;20318;-82
2023/10/15 02:58:38;;;;;;;12.05;0.52;;;6.70;99.90;;;;;;4984064;28;20053;-84
2023/10/15 03:01:20;;;;;;;5.93;0.50;;;7.30;99.90;;;;;;4983290;28;20054;-83
2023/10/15 03:03:52;;;;;;;7.45;0.30;;;4.80;99.90;;;;;;4982223;28;20054;-86
2023/10/15 03:06:31;;;;;;;6.80;0.60;;;4.90;99.90;;;;;;4981176;28;20042;-85
2023/10/15 03:08:57;;;;;;;12.38;0.70;;;5.50;99.90;;;;;;4980640;28;20057;-88
2023/10/15 03:11:25;;;;;;;7.18;0.70;;;4.60;99.90;;;;;;4981464;28;20060;-84
2023/10/15 03:13:54;;;;;;;6.75;0.40;;;5.20;99.90;;;;;;4981239;28;20061;-89
2023/10/15 03:16:23;;;;;;;6.22;0.68;;;8.00;99.90;;;;;;4979299;28;20139;-91
2023/10/15 03:18:49;;;;;;;6.20;0.40;;;5.40;99.90;;;;;;4983442;28;20131;-87
2023/10/15 03:21:24;;;;;;;9.07;0.38;;;5.60;99.90;;;;;;4984815;28;20049;-82
2023/10/15 03:23:51;;;;;;;5.68;0.40;;;8.10;99.90;;;;;;4966308;28;20053;-85
2023/10/15 03:26:18;;;;;;;4.72;0.40;;;7.10;99.90;;;;;;4976892;28;20054;-86
2023/10/15 03:28:51;;;;;;;5.53;0.43;;;7.70;99.90;;;;;;4978029;28;20100;-83
2023/10/15 03:31:25;;;;;;;7.35;0.93;;;5.70;99.90;;;;;;4969076;28;20056;-83
2023/10/15 03:36:30;;;;;;;5.82;1.30;;;7.90;99.90;;;;;;4974924;28;20069;-79
2023/10/15 03:38:58;;;;;;;9.82;0.50;;;5.30;99.90;;;;;;4982645;28;20702;-81
2023/10/15 03:41:29;;;;;;;7.72;0.35;;;5.60;99.90;;;;;;4989101;28;20591;-83
2023/10/15 03:44:02;;;;;;;8.20;1.42;;;8.00;99.90;;;;;;4956548;28;20058;-86
2023/10/15 03:46:33;;;;;;;6.82;0.68;;;5.20;99.90;;;;;;4984008;28;20058;-85
2023/10/15 03:49:00;;;;;;;7.28;0.70;;;5.00;99.90;;;;;;5008704;28;20056;-88
2023/10/15 03:51:27;;;;;;;5.45;0.52;;;5.20;99.90;;;;;;4987768;28;20142;-84
2023/10/15 03:54:06;;;;;;;6.18;1.85;;;8.30;99.90;;;;;;4979170;28;20087;-90
2023/10/15 03:56:34;;;;;;;5.30;0.20;;;7.00;99.90;;;;;;5007079;28;20045;-86
2023/10/15 03:59:02;;;;;;;5.18;0.25;;;6.00;99.90;;;;;;5004790;28;20053;-87
2023/10/15 04:01:30;;;;;;;7.75;0.30;;;7.10;99.90;;;;;;5002804;28;20046;-86
2023/10/15 04:03:56;;;;;;;5.80;0.28;;;5.80;99.90;;;;;;4989529;28;20858;-85
2023/10/15 04:06:22;;;;;;;2.47;0.20;;;5.70;99.90;;;;;;4999416;28;20053;-87
2023/10/15 04:11:30;;;;;;;5.63;0.30;;;8.80;99.90;;;;;;5003314;28;20462;-87
2023/10/15 04:14:28;;;;;;;9.45;0.40;;;5.30;99.90;;;;;;4993107;28;20064;-87
2023/10/15 04:16:54;;;;;;;6.68;0.93;;;7.50;99.90;;;;;;5010845;28;20112;-85
2023/10/15 04:19:25;;;;;;;5.97;0.38;;;5.30;99.90;;;;;;4993788;28;20080;-88
2023/10/15 04:21:53;;;;;;;6.50;0.25;;;5.30;99.90;;;;;;4996599;28;20064;-86
2023/10/15 04:24:28;;;;;;;3.60;0.20;;;5.40;99.90;;;;;;4998974;28;20062;-88
2023/10/15 04:26:54;;;;;;;6.43;0.20;;;7.70;99.90;;;;;;5000821;28;20060;-88
2023/10/15 04:29:21;;;;;;;4.90;0.70;;;7.30;99.90;;;;;;4993299;28;20049;-89
2023/10/15 04:32:10;;;;;;;8.07;0.30;;;7.10;99.90;;;;;;5002012;28;20750;-86
2023/10/15 04:34:36;;;;;;;6.28;0.68;;;6.30;99.90;;;;;;4996469;28;20251;-86
2023/10/15 04:37:16;;;;;;;4.40;1.05;;;5.70;99.90;;;;;;4988424;28;20057;-86
2023/10/15 04:39:52;;;;;;;5.18;0.20;;;6.70;99.90;;;;;;5006140;28;20049;-89
2023/10/15 04:42:28;;;;;;;3.95;0.40;;;8.20;99.90;;;;;;4991209;28;20464;-87
2023/10/15 04:44:55;;;;;;;5.13;0.35;;;8.90;99.90;;;;;;4997533;28;20060;-89
2023/10/15 04:47:59;;;;;;;5.50;0.40;;;5.50;99.90;;;;;;5000065;28;20137;-87
2023/10/15 04:50:15;;;;;;;4.30;0.57;;;6.80;99.90;;;;;;5008402;28;20061;-85
2023/10/15 04:52:42;;;;;;;5.43;0.75;;;5.40;99.90;;;;;;4984707;28;20062;-88
2023/10/15 04:55:08;;;;;;;6.55;0.30;;;9.10;99.90;;;;;;4980743;28;20932;-84
2023/10/15 04:57:34;;;;;;;5.65;0.43;;;5.40;99.90;;;;;;4973362;28;20076;-86
2023/10/15 05:00:00;;;;;;;4.53;0.85;;;5.90;99.90;;;;;;4982331;28;20092;-87
2023/10/15 05:02:26;;;;;;;3.13;0.20;;;5.10;99.90;;;;;;4975108;28;20089;-87
2023/10/15 05:04:53;;;;;;;3.33;0.20;;;5.10;99.90;;;;;;4979459;28;20053;-88
2023/10/15 05:07:18;;;;;;;7.72;0.22;;;5.70;99.90;;;;;;4970493;28;20494;-84
2023/10/15 05:09:44;;;;;;;4.93;0.30;;;5.30;99.90;;;;;;4975850;28;20057;-83
2023/10/15 05:12:12;;;;;;;5.15;0.30;;;8.20;99.90;;;;;;4964061;28;20058;-84
2023/10/15 05:14:38;;;;;;;9.60;1.05;;;5.40;99.90;;;;;;4967189;28;20050;-88
2023/10/15 05:17:04;;;;;;;4.90;0.20;;;6.70;99.90;;;;;;4977891;28;20100;-91
2023/10/15 05:19:30;;;;;;;5.07;0.55;;;6.70;99.90;;;;;;4984162;28;20065;-89
2023/10/15 05:21:57;;;;;;;5.15;0.30;;;5.20;99.90;;;;;;4974560;28;20213;-89
2023/10/15 05:24:25;;;;;;;9.18;0.40;;;4.00;99.90;;;;;;4965470;28;20417;-84
2023/10/15 05:26:51;;;;;;;6.65;0.43;;;4.40;99.90;;;;;;4972782;28;20054;-84
2023/10/15 05:29:17;;;;;;;5.82;0.50;;;5.50;99.90;;;;;;4950366;28;20158;-86
2023/10/15 05:31:43;;;;;;;11.93;0.40;;;5.30;99.90;;;;;;4980316;28;20056;-87
2023/10/15 05:34:09;;;;;;;7.65;0.70;;;5.80;99.90;;;;;;4975100;28;20064;-86
2023/10/15 05:36:38;;;;;;;3.45;0.22;;;5.30;99.90;;;;;;4974491;28;20448;-87
2023/10/15 05:39:06;;;;;;;6.57;0.55;;;8.90;99.90;;;;;;4983968;28;20676;-86
2023/10/15 05:41:32;;;;;;;6.20;1.08;;;5.50;99.90;;;;;;4988542;28;20129;-89
2023/10/15 05:43:59;;;;;;;2.20;0.45;;;8.80;99.90;;;;;;4966169;28;20142;-90
2023/10/15 05:46:27;;;;;;;6.85;0.30;;;8.80;99.90;;;;;;4977391;28;20061;-84
2023/10/15 05:49:11;;;;;;;5.35;0.40;;;6.10;99.90;;;;;;4968740;28;20057;-89
2023/10/15 05:51:40;;;;;;;7.25;0.30;;;6.80;99.90;;;;;;4970751;28;20054;-88
2023/10/15 05:54:06;;;;;;;3.80;0.47;;;5.30;99.90;;;;;;4974110;28;20057;-85
2023/10/15 05:56:33;;;;;;;6.22;0.30;;;5.90;99.90;;;;;;4986472;28;20663;-86
2023/10/15 05:58:59;;;;;;;7.97;1.10;;;5.10;99.90;;;;;;4957205;28;20101;-85
2023/10/15 06:01:25;;;;;;;4.72;0.40;;;5.50;99.90;;;;;;4968095;28;20114;-86
2023/10/15 06:03:51;;;;;;;5.82;0.20;;;5.20;99.90;;;;;;4949741;28;20069;-92
2023/10/15 06:06:17;;;;;;;3.88;0.20;;;6.80;99.90;;;;;;4965769;28;20480;-86
2023/10/15 06:08:43;;;;;;;5.05;0.35;;;7.60;99.90;;;;;;4976631;28;20161;-86
2023/10/15 06:11:09;;;;;;;8.50;0.70;;;3.40;99.90;;;;;;4980718;28;20093;-88
2023/10/15 06:13:35;;;;;;;5.97;0.30;;;8.50;99.90;;;;;;4976569;28;20058;-88
2023/10/15 06:16:01;;;;;;;5.97;0.88;;;6.20;99.90;;;;;;4966512;28;20573;-85
2023/10/15 06:18:27;;;;;;;3.25;0.20;;;3.10;99.90;;;;;;4969483;28;20140;-89
2023/10/15 06:20:54;;;;;;;9.68;0.40;;;5.20;99.90;;;;;;4965220;28;20061;-90
2023/10/15 06:23:20;;;;;;;6.03;0.35;;;5.30;99.90;;;;;;4985252;28;20331;-86
2023/10/15 06:25:45;;;;;;;6.90;0.40;;;6.40;99.90;;;;;;4983960;28;20524;-84
2023/10/15 06:28:14;;;;;;;6.55;0.35;;;2.80;99.90;;;;;;4968603;28;20065;-86
2023/10/15 06:30:43;;;;;;;4.65;0.30;;;5.30;99.90;;;;;;4978643;28;20120;-89
2023/10/15 06:33:11;;;;;;;7.68;1.08;;;6.00;99.90;;;;;;4974029;28;20061;-87
2023/10/15 06:35:40;;;;;;;10.93;0.40;;;4.70;99.90;;;;;;4984984;28;20501;-91
2023/10/15 06:38:05;;;;;;;7.55;0.57;;;5.60;99.90;;;;;;4984411;28;20054;-85
2023/10/15 06:40:32;;;;;;;9.82;0.40;;;7.20;99.90;;;;;;4980802;28;20493;-86
2023/10/15 06:43:00;;;;;;;6.00;0.30;;;8.30;99.90;;;;;;4975436;28;20116;-87
2023/10/15 06:45:29;;;;;;;6.10;0.20;;;5.70;99.90;;;;;;4985429;28;20046;-89
2023/10/15 06:47:55;;;;;;;7.53;0.30;;;5.60;99.90;;;;;;4975211;28;20418;-87
2023/10/15 06:50:22;;;;;;;6.20;0.65;;;7.10;99.90;;;;;;4976920;28;20057;-86
2023/10/15 06:52:49;;;;;;;7.00;0.40;;;5.60;99.90;;;;;;4984914;28;20050;-87
2023/10/15 06:55:17;;;;;;;10.43;0.40;;;5.90;99.90;;;;;;4979467;28;20050;-91
2023/10/15 06:57:43;;;;;;;3.53;0.20;;;5.80;99.90;;;;;;4982058;28;20497;-87
2023/10/15 07:00:12;;;;;;;10.35;0.47;;;7.40;99.90;;;;;;4983476;28;20116;-89
2023/10/15 07:02:38;;;;;;;8.02;0.88;;;6.80;99.90;;;;;;4982018;28;20069;-90
2023/10/15 07:05:05;;;;;;;6.50;0.52;;;6.20;99.90;;;;;;4979129;28;20486;-88
2023/10/15 07:07:33;;;;;;;8.38;1.05;;;7.00;99.90;;;;;;4994641;28;20459;-88
2023/10/15 07:10:09;;;;;;;7.43;0.30;;;5.90;99.90;;;;;;5014782;28;20114;-84
2023/10/15 07:12:35;;;;;;;4.78;0.20;;;5.80;99.90;;;;;;4990228;28;20479;-85
2023/10/15 07:15:01;;;;;;;3.50;0.30;;;8.60;99.90;;;;;;4986634;28;20059;-86
2023/10/15 07:17:27;;;;;;;6.15;0.40;;;5.90;99.90;;;;;;4998282;28;20122;-86
2023/10/15 07:19:53;;;;;;;5.68;0.28;;;6.50;99.90;;;;;;4988233;28;20057;-85
2023/10/15 07:22:20;;;;;;;3.97;0.10;;;6.30;99.90;;;;;;4991292;28;20045;-84
2023/10/15 07:24:46;;;;;;;3.67;0.10;;;8.50;99.90;;;;;;4995167;28;20547;-84
2023/10/15 07:27:12;;;;;;;6.95;0.30;;;5.90;99.90;;;;;;4985718;28;20137;-85
2023/10/15 07:29:39;;;;;;;2.50;0.32;;;7.50;99.90;;;;;;4990669;28;20512;-81
2023/10/15 07:32:07;;;;;;;4.93;0.30;;;6.30;99.90;;;;;;4985015;28;20050;-85
2023/10/15 07:34:33;;;;;;;5.78;0.40;;;6.00;99.90;;;;;;4984806;28;20037;-91
2023/10/15 07:36:59;;;;;;;3.45;0.75;;;6.00;99.90;;;;;;4995432;28;20191;-88
2023/10/15 07:39:25;;;;;;;3.55;0.20;;;6.10;99.90;;;;;;4999976;28;20054;-87
2023/10/15 07:41:51;;;;;;;2.63;0.22;;;6.70;99.90;;;;;;4986563;28;20084;-83
2023/10/15 07:44:18;;;;;;;2.80;0.20;;;6.20;99.90;;;;;;4991235;28;20056;-81
2023/10/15 07:46:45;;;;;;;3.60;0.30;;;7.80;99.90;;;;;;4991938;28;20142;-81
2023/10/15 07:49:12;;;;;;;3.80;0.17;;;4.90;99.90;;;;;;4969284;28;20460;-89
2023/10/15 07:51:41;;;;;;;5.53;0.10;;;6.10;99.90;;;;;;5010873;28;20050;-88
2023/10/15 07:54:07;;;;;;;5.82;0.20;;;3.80;99.90;;;;;;4984814;28;20077;-86
2023/10/15 07:56:34;;;;;;;2.38;0.10;;;8.00;99.90;;;;;;4998868;28;20084;-84
2023/10/15 07:59:04;;;;;;;2.15;0.10;;;5.90;99.90;;;;;;4984920;28;20084;-85
2023/10/15 08:01:31;;;;;;;2.17;0.00;;;5.90;99.90;;;;;;4997299;28;20550;-85
2023/10/15 08:03:59;;;;;;;3.47;0.10;;;7.90;99.90;;;;;;4981613;28;20052;-86
2023/10/15 08:06:25;;;;;;;6.25;0.20;;;5.90;99.90;;;;;;4989152;28;20046;-86
2023/10/15 08:08:51;;;;;;;4.45;0.20;;;8.20;99.90;;;;;;4997963;28;20307;-88
2023/10/15 08:11:17;;;;;;;5.55;0.20;;;5.90;99.90;;;;;;4998974;28;20079;-87
2023/10/15 08:13:43;;;;;;;2.35;0.20;;;6.00;99.90;;;;;;4994858;28;20057;-89
2023/10/15 08:16:08;;;;;;;3.03;0.15;;;8.60;99.90;;;;;;4990625;28;20054;-88
2023/10/15 08:18:34;;;;;;;8.18;1.25;;;6.00;99.90;;;;;;4995568;28;20046;-89
2023/10/15 08:21:00;;;;;;;5.97;0.20;;;6.00;99.90;;;;;;4988394;28;20060;-92
2023/10/15 08:23:27;;;;;;;2.90;0.10;;;6.20;99.90;;;;;;4986278;28;20175;-90
2023/10/15 08:25:54;;;;;;;1.52;0.13;;;6.00;99.90;;;;;;5003234;28;20588;-90
2023/10/15 08:28:20;;;;;;;1.27;0.10;;;9.30;99.90;;;;;;4997608;28;20045;-89
2023/10/15 08:30:46;;;;;;;4.00;0.20;;;5.90;99.90;;;;;;4997614;28;20049;-89
2023/10/15 08:33:14;;;;;;;3.80;0.20;;;6.00;99.90;;;;;;4987608;28;20048;-94
2023/10/15 08:35:40;;;;;;;3.05;0.30;;;8.20;99.90;;;;;;4988802;28;20049;-92
2023/10/15 08:38:07;;;;;;;5.30;0.20;;;7.90;99.90;;;;;;4999257;28;20056;-90
2023/10/15 08:40:48;;;;;;;5.88;0.68;;;6.80;99.90;;;;;;5006234;28;20059;-92
2023/10/15 08:43:23;;;;;;;3.17;0.60;;;7.10;99.90;;;;;;4982765;28;20401;-91
2023/10/15 08:45:51;;;;;;;5.47;1.08;;;5.50;99.90;;;;;;5002387;28;20128;-90
2023/10/15 08:48:18;;;;;;;3.15;0.13;;;8.30;99.90;;;;;;4995604;28;20088;-91
2023/10/15 08:50:46;;;;;;;5.50;0.20;;;9.20;99.90;;;;;;4996807;28;20084;-89
2023/10/15 08:53:16;;;;;;;3.40;0.20;;;7.40;99.90;;;;;;4999491;28;20052;-89
2023/10/15 08:55:42;;;;;;;10.23;0.57;;;7.20;99.90;;;;;;5005025;28;20129;-89
2023/10/15 08:58:09;;;;;;;5.78;0.40;;;7.40;99.90;;;;;;4990313;28;20054;-88
2023/10/15 09:00:39;;;;;;;5.40;0.65;;;7.70;99.90;;;;;;4994411;28;20061;-86
2023/10/15 09:03:05;;;;;;;4.05;0.30;;;6.20;99.90;;;;;;4983200;28;20506;-83
2023/10/15 09:05:36;;;;;;;4.05;0.43;;;8.80;99.90;;;;;;4979910;28;20429;-87
2023/10/15 09:08:07;;;;;;;5.15;0.20;;;6.00;99.90;;;;;;4992887;28;20053;-83
2023/10/15 09:10:40;;;;;;;2.88;0.30;;;8.40;99.90;;;;;;4991068;28;20081;-86
2023/10/15 09:13:14;;;;;;;7.50;0.73;;;8.60;99.90;;;;;;4980820;28;20053;-85
2023/10/15 09:15:43;;;;;;;2.88;0.40;;;8.80;99.90;;;;;;4998064;28;20060;-84
2023/10/15 09:18:15;;;;;;;5.75;0.22;;;8.80;99.90;;;;;;4999857;28;20603;-82
2023/10/15 09:20:43;;;;;;;7.20;0.40;;;9.30;99.90;;;;;;4994162;28;20046;-78
2023/10/15 09:23:29;;;;;;;5.80;0.40;;;9.00;99.90;;;;;;4994048;28;21037;-83
2023/10/15 09:25:58;;;;;;;2.75;0.25;;;9.30;99.90;;;;;;4993933;28;20058;-87
2023/10/15 09:28:27;;;;;;;4.00;0.28;;;9.20;99.90;;;;;;4961820;28;20055;-84
2023/10/15 09:31:11;;;;;;;3.55;0.20;;;9.20;99.90;;;;;;4961494;28;20061;-82
2023/10/15 09:33:38;;;;;;;5.97;0.45;;;9.10;99.90;;;;;;4975744;28;20076;-81
2023/10/15 09:36:05;;;;;;;3.97;0.45;;;9.00;99.90;;;;;;4954248;28;20084;-85
2023/10/15 09:38:32;;;;;;;5.47;0.65;;;9.00;99.90;;;;;;4977261;28;20097;-85
2023/10/15 09:41:02;;;;;;;5.82;0.70;;;9.00;99.90;;;;;;4975581;28;20050;-84
2023/10/15 09:43:31;;;;;;;7.30;0.30;;;9.00;99.90;;;;;;4966806;28;20112;-84
2023/10/15 09:46:00;;;;;;;6.05;0.30;;;9.00;99.90;;;;;;4962279;28;20940;-87
2023/10/15 09:48:27;;;;;;;8.15;1.38;;;8.90;99.90;;;;;;4952533;28;20069;-87
2023/10/15 09:50:56;;;;;;;7.60;0.40;;;9.10;99.90;;;;;;4976703;28;20085;-83
2023/10/15 09:53:29;;;;;;;3.67;0.30;;;9.00;99.90;;;;;;4975702;28;20077;-86
2023/10/15 09:55:58;;;;;;;5.35;0.35;;;9.10;99.90;;;;;;4973641;28;20053;-85
2023/10/15 09:58:25;;;;;;;4.88;0.52;;;9.10;99.90;;;;;;4986569;28;20179;-86
2023/10/15 10:01:08;;;;;;;10.88;0.70;;;10.50;99.90;;;;;;5003125;28;20072;-89
2023/10/15 10:03:52;;;;;;;5.43;0.40;;;9.30;99.90;;;;;;4990879;28;20053;-87
2023/10/15 10:06:37;;;;;;;6.82;0.30;;;10.10;99.90;;;;;;5003678;28;20046;-88
2023/10/15 10:09:21;;;;;;;8.32;0.52;;;9.40;99.90;;;;;;5003015;28;20065;-86
2023/10/15 10:12:11;;;;;;;9.25;1.02;;;9.40;99.90;;;;;;5016035;28;20136;-90
2023/10/15 10:15:08;;;;;;;4.53;0.25;;;9.40;99.90;;;;;;5011709;28;20064;-89
2023/10/15 10:17:34;;;;;;;7.68;0.40;;;9.40;99.90;;;;;;4998576;28;20133;-89
2023/10/15 10:20:13;;;;;;;8.80;0.50;;;9.40;99.90;;;;;;4996917;28;20053;-91
2023/10/15 10:22:41;;;;;;;4.25;0.30;;;9.40;99.90;;;;;;5001214;28;20079;-80
2023/10/15 10:25:39;;;;;;;9.52;0.30;;;9.50;99.90;;;;;;4981592;28;20073;-82
2023/10/15 10:28:13;;;;;;;3.63;0.20;;;9.50;99.90;;;;;;4966590;28;20066;-83
2023/10/15 10:30:57;;;;;;;7.38;0.45;;;9.70;99.90;;;;;;4985862;28;20062;-84
2023/10/15 10:33:44;;;;;;;4.28;0.20;;;9.60;99.90;;;;;;4953647;28;20050;-88
2023/10/15 10:36:27;;;;;;;6.47;0.90;;;9.60;99.90;;;;;;4995337;28;20685;-82
2023/10/15 10:39:13;;;;;;;3.20;0.45;;;9.50;99.90;;;;;;4987188;28;20058;-86
2023/10/15 10:41:50;;;;;;;7.57;0.47;;;9.60;99.90;;;;;;4966278;28;20133;-81
2023/10/15 10:44:24;;;;;;;5.55;0.20;;;9.70;99.90;;;;;;4975331;28;20607;-84
2023/10/15 10:46:56;;;;;;;6.57;0.40;;;9.70;99.90;;;;;;4984941;28;20209;-81
2023/10/15 10:49:29;;;;;;;8.50;1.00;;;9.70;99.90;;;;;;4975009;28;20061;-81
2023/10/15 10:52:05;;;;;;;5.15;0.40;;;9.80;99.90;;;;;;4973223;28;20372;-85
2023/10/15 10:54:31;;;;;;;10.45;1.92;;;10.30;99.90;;;;;;4973148;28;20058;-78
2023/10/15 10:57:00;;;;;;;7.05;0.70;;;10.30;99.90;;;;;;4972430;28;20088;-87
2023/10/15 10:59:27;;;;;;;7.45;0.40;;;10.60;99.90;;;;;;4991612;28;20076;-79
2023/10/15 11:01:53;;;;;;;8.68;0.55;;;10.80;99.90;;;;;;4988136;28;20427;-84
2023/10/15 11:04:19;;;;;;;8.48;0.60;;;11.00;99.90;;;;;;4987497;28;20060;-77
2023/10/15 11:06:45;;;;;;;5.68;0.52;;;11.20;99.90;;;;;;4994569;28;20779;-76
2023/10/15 11:09:15;;;;;;;8.60;0.47;;;11.30;99.90;;;;;;4988341;28;20132;-82
2023/10/15 11:11:47;;;;;;;4.57;0.55;;;11.40;99.90;;;;;;4964403;28;20093;-79
2023/10/15 11:14:17;;;;;;;2.00;0.30;;;11.40;99.90;;;;;;4987119;28;20049;-84
2023/10/15 11:16:46;;;;;;;4.63;0.30;;;11.40;99.90;;;;;;4993696;28;20156;-77
2023/10/15 11:19:20;;;;;;;4.82;0.20;;;11.20;99.90;;;;;;4987289;28;20600;-76
2023/10/15 11:21:48;;;;;;;3.65;0.30;;;11.10;99.90;;;;;;4992842;28;20060;-77
2023/10/15 11:24:15;;;;;;;3.08;0.20;;;11.10;99.90;;;;;;4990771;28;20137;-77
2023/10/15 11:26:42;;;;;;;3.08;0.20;;;11.10;99.90;;;;;;5016397;28;20077;-78
2023/10/15 11:29:19;;;;;;;7.53;0.30;;;11.20;99.90;;;;;;4989377;28;20104;-77
2023/10/15 11:31:48;;;;;;;3.65;0.28;;;11.30;99.90;;;;;;4970741;28;20122;-75
2023/10/15 11:34:21;;;;;;;7.10;0.30;;;11.30;99.90;;;;;;4995459;28;20045;-87
2023/10/15 11:36:48;;;;;;;3.30;0.20;;;11.20;99.90;;;;;;4983143;28;20054;-85
2023/10/15 11:39:19;;;;;;;2.40;0.10;;;10.90;99.90;;;;;;4982187;28;20128;-88
2023/10/15 11:41:51;;;;;;;2.88;0.20;;;11.70;99.90;;;;;;4980968;28;20045;-81
2023/10/15 11:45:16;;;;;;;2.03;0.10;;;10.40;99.90;;;;;;4994635;28;20663;-83
2023/10/15 11:47:08;;;;;;;3.50;0.20;;;10.40;99.90;;;;;;4999342;28;20560;-84
2023/10/15 11:49:38;;;;;;;4.28;0.28;;;9.80;99.90;;;;;;5007541;28;20157;-83
2023/10/15 11:52:05;;;;;;;4.32;0.20;;;9.70;99.90;;;;;;4987576;28;20104;-78
2023/10/15 11:54:32;;;;;;;2.42;0.13;;;9.70;99.90;;;;;;4963813;28;20052;-77
2023/10/15 11:57:04;;;;;;;4.38;0.47;;;9.70;99.90;;;;;;4993462;28;20439;-78
2023/10/15 11:59:31;;;;;;;8.75;0.20;;;9.60;99.90;;;;;;4980312;28;20115;-77
2023/10/15 12:02:01;;;;;;;9.10;0.40;;;9.60;99.90;;;;;;4988088;28;20061;-78
2023/10/15 12:04:28;;;;;;;3.38;0.40;;;9.60;99.90;;;;;;4986941;28;20053;-79
2023/10/15 12:06:53;;;;;;;1.90;0.10;;;9.60;99.90;;;;;;4984724;28;20038;-77
2023/10/15 12:09:26;;;;;;;5.35;0.40;;;9.60;99.90;;;;;;4995151;28;20860;-80
2023/10/15 12:11:52;;;;;;;4.97;0.20;;;9.70;99.90;;;;;;4985520;28;20133;-79
2023/10/15 12:14:18;;;;;;;9.70;1.85;;;9.70;99.90;;;;;;4992063;28;20475;-80
2023/10/15 12:16:44;;;;;;;4.13;0.25;;;9.80;99.90;;;;;;4985643;28;20046;-83
2023/10/15 12:19:10;;;;;;;4.60;0.43;;;9.50;99.90;;;;;;4998441;28;20100;-76
2023/10/15 12:21:37;;;;;;;3.55;0.30;;;10.50;99.90;;;;;;4984215;28;20049;-80
2023/10/15 12:24:04;;;;;;;5.22;0.30;;;11.10;99.90;;;;;;4989104;28;20089;-80
2023/10/15 12:26:30;;;;;;;4.05;0.22;;;10.00;99.90;;;;;;5005505;28;20151;-78
2023/10/15 12:28:56;;;;;;;5.55;0.77;;;9.90;99.90;;;;;;4989550;28;20568;-81
2023/10/15 12:31:23;;;;;;;8.73;1.85;;;10.10;99.90;;;;;;4986211;28;20053;-81
2023/10/15 12:33:48;;;;;;;3.80;0.43;;;9.90;99.90;;;;;;4987058;28;20064;-80
2023/10/15 12:36:14;;;;;;;5.70;0.40;;;9.40;99.90;;;;;;4999361;28;20042;-82
2023/10/15 12:38:42;;;;;;;6.38;1.05;;;9.30;99.90;;;;;;5000327;28;20135;-82
2023/10/15 12:41:09;;;;;;;5.28;0.40;;;9.20;99.90;;;;;;5003778;28;20049;-84
2023/10/15 12:43:36;;;;;;;7.13;0.88;;;9.60;99.90;;;;;;4994704;28;20054;-82
2023/10/15 12:46:03;;;;;;;5.75;0.30;;;9.00;99.90;;;;;;4978473;28;20842;-83
2023/10/15 12:48:29;;;;;;;6.75;1.15;;;10.40;99.90;;;;;;4994663;28;20064;-79
2023/10/15 12:50:56;;;;;;;4.97;0.28;;;9.30;99.90;;;;;;4983887;28;20057;-84
2023/10/15 12:53:23;;;;;;;8.43;0.50;;;9.50;99.90;;;;;;4986019;28;20053;-82
2023/10/15 12:55:49;;;;;;;8.55;0.88;;;9.70;99.90;;;;;;4989181;28;20392;-79
2023/10/15 12:58:15;;;;;;;8.45;0.38;;;9.80;99.90;;;;;;4991074;28;20050;-87
2023/10/15 13:00:48;;;;;;;6.63;0.45;;;9.80;99.90;;;;;;4984101;28;20054;-82
2023/10/15 13:03:18;;;;;;;11.93;0.47;;;9.80;99.90;;;;;;4988306;28;20054;-83
2023/10/15 13:05:44;;;;;;;7.28;0.57;;;9.70;99.90;;;;;;5006522;28;20048;-77
2023/10/15 13:08:10;;;;;;;12.10;0.70;;;9.70;99.90;;;;;;4988917;28;20076;-84
2023/10/15 13:10:36;;;;;;;6.85;0.40;;;9.60;99.90;;;;;;4988492;28;20041;-77
2023/10/15 13:13:02;;;;;;;6.45;0.43;;;9.60;99.90;;;;;;4985159;28;20196;-79
2023/10/15 13:15:28;;;;;;;6.57;0.68;;;9.50;99.90;;;;;;4977217;28;20046;-82
2023/10/15 13:17:57;;;;;;;4.30;0.28;;;10.80;99.90;;;;;;4990371;28;20060;-77
2023/10/15 13:20:23;;;;;;;5.22;0.30;;;9.50;99.90;;;;;;4987413;28;20115;-81
2023/10/15 13:22:49;;;;;;;8.20;0.40;;;10.80;99.90;;;;;;4989288;28;20455;-77
2023/10/15 13:25:15;;;;;;;4.70;0.55;;;9.50;99.90;;;;;;4991431;28;20783;-81
2023/10/15 13:27:42;;;;;;;9.00;0.90;;;9.60;99.90;;;;;;4988431;28;20132;-82
2023/10/15 13:30:18;;;;;;;7.30;0.50;;;9.60;99.90;;;;;;5012401;28;20046;-80